»·PEaware :: ASA730 KSFO-KSEA

ASA730 :: KSFO-KSEA

FLIGHT INFORMATION

Flight Status: Arrived
Operator:
Alaska Airlines
More flights by this operator :: More flights under this callsign
Pilot: Michael F. (26726)
Aircraft: BOEING 737-800
(B738)
More flights by this aircraft type
Origin: KSFO San Francisco Intl
United States
Destination: KSEA Seattle-Tacoma Intl
United States
More flights between these airports :: More routes between these airports
Route: TRUKN2 DEDHD RBL LMT HAWKZ7
File this flight plan on PilotEdge
Remarks: RMK / SIMBRIEF
Altitude:
(Current/Filed)
34,000ft
Speed:
(Current/Filed)
466kts
Departed: 12-Nov-20 07:59 PM
Arrived: 12-Nov-20 09:48 PM
Distance/Time
Traveled:
590nm/1:49
Distance/Time
To Go:
Arrived

Flight Plot

Page will automatically refresh every two minutes.

Flight plan parsing failed; only flown route is shown


Map Options




Map Legend


Flown Route
Filed Route
Departure Airport
Arrival Airport
Navaid (VOR, NDB)
Fix

Horizontal Profiles

Position Reports

Time Latitude Longitude Heading Altitude Ground
Speed
12-Nov-20 19:40 37.616775 -122.381655 23 22ft 0kts
12-Nov-20 19:41 37.616775 -122.381655 23 22ft 0kts
12-Nov-20 19:42 37.616775 -122.381655 23 22ft 0kts
12-Nov-20 19:43 37.616775 -122.381655 23 22ft 0kts
12-Nov-20 19:44 37.616775 -122.381655 23 22ft 0kts
12-Nov-20 19:45 37.616775 -122.381655 23 22ft 0kts
12-Nov-20 19:46 37.616449 -122.381832 23 22ft 2kts
12-Nov-20 19:47 37.616055 -122.382046 23 22ft 0kts
12-Nov-20 19:48 37.616055 -122.382046 23 22ft 0kts
12-Nov-20 19:49 37.616055 -122.382046 23 22ft 0kts
12-Nov-20 19:50 37.616140 -122.381868 83 22ft 4kts
12-Nov-20 19:51 37.615879 -122.380994 117 22ft 0kts
12-Nov-20 19:52 37.615878 -122.380992 117 22ft 0kts
12-Nov-20 19:53 37.615167 -122.380625 200 22ft 7kts
12-Nov-20 19:54 37.612692 -122.382265 207 22ft 11kts
12-Nov-20 19:56 37.609853 -122.384210 209 22ft 8kts
12-Nov-20 19:57 37.608479 -122.383796 120 22ft 1kts
12-Nov-20 19:58 37.608195 -122.383011 93 22ft 6kts
12-Nov-20 19:59 37.628551 -122.368762 37 371ft 166kts
12-Nov-20 20:00 37.662536 -122.309986 50 2691ft 237kts
12-Nov-20 20:01 37.706345 -122.238145 52 5647ft 272kts
12-Nov-20 20:02 37.776670 -122.204813 6 8789ft 285kts
12-Nov-20 20:03 37.859388 -122.191355 5 11035ft 326kts
12-Nov-20 20:04 37.955211 -122.175621 5 13356ft 356kts
12-Nov-20 20:05 38.055004 -122.159207 4 16194ft 367kts
12-Nov-20 20:06 38.157899 -122.142228 4 18833ft 379kts
12-Nov-20 20:07 38.263368 -122.124783 4 19134ft 379kts
12-Nov-20 20:08 38.368708 -122.115313 354 20489ft 382kts
12-Nov-20 20:09 38.476357 -122.122489 354 22716ft 390kts
12-Nov-20 20:10 38.585804 -122.129998 354 24638ft 398kts
12-Nov-20 20:11 38.697270 -122.137677 354 26394ft 402kts
12-Nov-20 20:12 38.809146 -122.145406 354 27920ft 404kts
12-Nov-20 20:12 38.902903 -122.151908 354 29013ft 405kts
12-Nov-20 20:14 39.034473 -122.161064 354 30210ft 405kts
12-Nov-20 20:14 39.128300 -122.167599 354 30944ft 403kts
12-Nov-20 20:16 39.257285 -122.176620 353 32146ft 393kts
12-Nov-20 20:17 39.365641 -122.184244 353 33142ft 385kts
12-Nov-20 20:17 39.454083 -122.190479 353 33912ft 378kts
12-Nov-20 20:19 39.576535 -122.199115 353 34142ft 375kts
12-Nov-20 20:19 39.662978 -122.205231 353 34141ft 373kts
12-Nov-20 20:20 39.766824 -122.212609 353 34130ft 373kts
12-Nov-20 20:21 39.870686 -122.220011 353 34122ft 373kts
12-Nov-20 20:22 39.974145 -122.227401 353 34130ft 373kts
12-Nov-20 20:23 40.077999 -122.234855 353 34125ft 373kts
12-Nov-20 20:24 40.181941 -122.216014 4 34123ft 380kts
12-Nov-20 20:25 40.286223 -122.191090 4 34121ft 380kts
12-Nov-20 20:26 40.389934 -122.166045 4 34125ft 380kts
12-Nov-20 20:27 40.494042 -122.140804 4 34107ft 380kts
12-Nov-20 20:28 40.598034 -122.115521 4 34113ft 379kts
12-Nov-20 20:29 40.701656 -122.090238 3 34109ft 379kts
12-Nov-20 20:30 40.805557 -122.064822 4 34094ft 379kts
12-Nov-20 20:31 40.909066 -122.039415 3 34107ft 379kts
12-Nov-20 20:32 41.013153 -122.013779 3 34091ft 380kts
12-Nov-20 20:33 41.117110 -121.988106 3 34091ft 383kts
12-Nov-20 20:34 41.222471 -121.961989 3 34074ft 386kts
12-Nov-20 20:35 41.328521 -121.935619 3 34062ft 388kts
12-Nov-20 20:36 41.435124 -121.909004 3 34064ft 389kts
12-Nov-20 20:37 41.541466 -121.882401 3 34065ft 390kts
12-Nov-20 20:38 41.648112 -121.855615 3 34062ft 390kts
12-Nov-20 20:39 41.755098 -121.828648 3 34065ft 390kts
12-Nov-20 20:40 41.861340 -121.801779 3 34042ft 389kts
12-Nov-20 20:41 41.968132 -121.774701 3 34033ft 389kts
12-Nov-20 20:42 42.074161 -121.747695 3 34036ft 388kts
12-Nov-20 20:43 42.179871 -121.738662 348 34038ft 376kts
12-Nov-20 20:44 42.283441 -121.757611 346 34039ft 375kts
12-Nov-20 20:45 42.386195 -121.780569 345 34030ft 375kts
12-Nov-20 20:46 42.489277 -121.804079 345 34037ft 376kts
12-Nov-20 20:47 42.592897 -121.827802 345 34028ft 377kts
12-Nov-20 20:48 42.696897 -121.851687 345 34032ft 379kts
12-Nov-20 20:49 42.800855 -121.875641 345 34032ft 380kts
12-Nov-20 20:50 42.905492 -121.899836 345 34030ft 381kts
12-Nov-20 20:51 43.010037 -121.924090 345 34027ft 383kts
12-Nov-20 20:52 43.115472 -121.948638 344 34024ft 384kts
12-Nov-20 20:53 43.220684 -121.973220 344 34021ft 384kts
12-Nov-20 20:54 43.326340 -121.997993 344 34013ft 385kts
12-Nov-20 20:55 43.431587 -122.022769 344 34009ft 382kts
12-Nov-20 20:56 43.536601 -122.047584 344 34001ft 382kts
12-Nov-20 20:57 43.641247 -122.072400 343 33999ft 382kts
12-Nov-20 20:58 43.745950 -122.097318 343 33998ft 382kts
12-Nov-20 20:59 43.851070 -122.122424 343 33995ft 383kts
12-Nov-20 21:00 43.956054 -122.147587 343 33986ft 384kts
12-Nov-20 21:01 44.061329 -122.172911 343 33984ft 384kts
12-Nov-20 21:02 44.166779 -122.198368 343 33979ft 384kts
12-Nov-20 21:03 44.271845 -122.223823 343 33975ft 384kts
12-Nov-20 21:04 44.377284 -122.249460 343 33970ft 384kts
12-Nov-20 21:05 44.482454 -122.275124 343 33965ft 384kts
12-Nov-20 21:06 44.587839 -122.300937 343 33956ft 383kts
12-Nov-20 21:07 44.692909 -122.326769 343 33952ft 383kts
12-Nov-20 21:08 44.798020 -122.352707 342 33955ft 383kts
12-Nov-20 21:09 44.903016 -122.378712 342 33953ft 384kts
12-Nov-20 21:10 45.008418 -122.404914 342 33940ft 384kts
12-Nov-20 21:11 45.113912 -122.431238 342 33938ft 384kts
12-Nov-20 21:12 45.219216 -122.457613 342 33939ft 385kts
12-Nov-20 21:13 45.324961 -122.484202 341 33938ft 386kts
12-Nov-20 21:14 45.403402 -122.503995 341 33937ft 387kts
12-Nov-20 21:15 45.509776 -122.530917 341 33936ft 388kts
12-Nov-20 21:16 45.616064 -122.557919 341 33931ft 389kts
12-Nov-20 21:17 45.722844 -122.585163 341 33681ft 392kts
12-Nov-20 21:18 45.830059 -122.611845 342 31782ft 394kts
12-Nov-20 21:19 45.939780 -122.639011 342 29852ft 405kts
12-Nov-20 21:20 46.052990 -122.667156 342 27867ft 421kts
12-Nov-20 21:21 46.169633 -122.692325 344 25829ft 425kts
12-Nov-20 21:22 46.285860 -122.715371 344 23805ft 417kts
12-Nov-20 21:23 46.402182 -122.725150 350 21785ft 418kts
12-Nov-20 21:24 46.517331 -122.729276 350 19776ft 409kts
12-Nov-20 21:25 46.628904 -122.733313 350 17843ft 392kts
12-Nov-20 21:26 46.735057 -122.737161 351 16198ft 371kts
12-Nov-20 21:27 46.825368 -122.688486 34 14426ft 352kts
12-Nov-20 21:28 46.901761 -122.603074 34 12775ft 339kts
12-Nov-20 21:29 46.982620 -122.544455 13 11649ft 321kts
12-Nov-20 21:30 47.067726 -122.505222 12 10940ft 320kts
12-Nov-20 21:31 47.147170 -122.487894 1 10325ft 316kts
12-Nov-20 21:32 47.232547 -122.473524 0 9465ft 304kts
12-Nov-20 21:33 47.309688 -122.461849 1 8517ft 303kts
12-Nov-20 21:34 47.391765 -122.454654 354 7294ft 290kts
12-Nov-20 21:35 47.470752 -122.455324 356 6385ft 279kts
12-Nov-20 21:36 47.544694 -122.455237 356 5998ft 260kts
12-Nov-20 21:37 47.617469 -122.455171 356 5421ft 256kts
12-Nov-20 21:38 47.681056 -122.457244 356 4576ft 245kts
12-Nov-20 21:39 47.742735 -122.439506 63 4055ft 224kts
12-Nov-20 21:40 47.735278 -122.361378 142 4065ft 197kts
12-Nov-20 21:41 47.691910 -122.313698 152 3983ft 187kts
12-Nov-20 21:42 47.641709 -122.306107 179 3840ft 184kts
12-Nov-20 21:43 47.593494 -122.306634 176 2957ft 164kts
12-Nov-20 21:44 47.547987 -122.307076 177 2095ft 149kts
12-Nov-20 21:45 47.508866 -122.307443 179 1346ft 139kts
12-Nov-20 21:46 47.471032 -122.307708 179 627ft 134kts
12-Nov-20 21:47 47.447992 -122.307916 179 442ft 25kts
12-Nov-20 21:48 47.445920 -122.306704 82 442ft 1kts
12-Nov-20 21:49 47.447614 -122.305350 79 442ft 6kts
12-Nov-20 21:50 47.447628 -122.304282 89 442ft 1kts
12-Nov-20 21:51 47.446926 -122.302463 119 442ft 10kts
12-Nov-20 21:52 47.445714 -122.302412 231 442ft 3kts
12-Nov-20 21:53 47.445632 -122.303221 268 442ft 0kts
12-Nov-20 21:54 47.445632 -122.303221 268 442ft 0kts
12-Nov-20 21:56 47.445632 -122.303221 268 442ft 0kts
12-Nov-20 21:57 47.445632 -122.303221 268 442ft 0kts
12-Nov-20 21:58 47.445632 -122.303221 268 442ft 0kts
12-Nov-20 21:59 47.445632 -122.303221 268 442ft 0kts
12-Nov-20 22:00 47.445632 -122.303221 268 442ft 0kts
12-Nov-20 22:01 47.445632 -122.303221 268 442ft 0kts
12-Nov-20 22:02 47.445632 -122.303221 268 442ft 0kts

Navigation Log

Ident Type
Flight plan parsing failed, navigation log unavailable